Time;durP1;ratioP1;P1;durP2;ratioP2;P2;SDS_P1;SDS_P2;PMS_P1;PMS_P2;Temp;Humidity;BMP_temperature;BMP_pressure;BME280_temperature;BME280_humidity;BME280_pressure;Samples;Min_cycle;Max_cycle;Signal;HPM_P1;HPM_P2
2023/03/24 00:02:17;;;;;;;18.45;13.40;;;13.50;71.70;;;;;;5074085;28;20036;-65
2023/03/24 00:04:43;;;;;;;18.73;14.10;;;13.40;72.00;;;;;;5073697;28;20078;-65
2023/03/24 00:07:13;;;;;;;18.73;13.82;;;13.40;71.80;;;;;;5073834;28;20435;-65
2023/03/24 00:09:40;;;;;;;17.30;13.35;;;13.40;71.80;;;;;;5056254;28;20037;-65
2023/03/24 00:12:08;;;;;;;19.13;13.48;;;13.40;71.70;;;;;;5073649;28;20037;-65
2023/03/24 00:14:37;;;;;;;18.55;13.35;;;13.40;71.90;;;;;;5074008;28;20365;-65
2023/03/24 00:17:04;;;;;;;18.92;12.82;;;13.40;72.00;;;;;;5065713;28;20033;-66
2023/03/24 00:19:32;;;;;;;19.42;13.07;;;13.40;72.00;;;;;;5073258;28;20037;-65
2023/03/24 00:21:59;;;;;;;18.17;13.73;;;13.40;72.00;;;;;;5073876;28;20040;-65
2023/03/24 00:24:26;;;;;;;15.57;11.68;;;13.40;72.10;;;;;;5073278;28;20563;-64
2023/03/24 00:26:56;;;;;;;15.88;11.93;;;13.30;71.90;;;;;;5073659;28;20112;-65
2023/03/24 00:29:23;;;;;;;17.15;12.63;;;13.30;72.00;;;;;;5073493;28;20488;-65
2023/03/24 00:31:51;;;;;;;14.80;11.32;;;13.30;72.20;;;;;;5073333;28;20048;-65
2023/03/24 00:34:20;;;;;;;12.55;9.65;;;13.30;72.50;;;;;;5072905;28;20029;-65
2023/03/24 00:36:50;;;;;;;14.07;9.50;;;13.20;72.50;;;;;;5073735;28;20490;-65
2023/03/24 00:39:17;;;;;;;11.52;9.50;;;13.30;72.60;;;;;;5073251;28;20038;-65
2023/03/24 00:41:45;;;;;;;13.63;10.00;;;13.20;72.30;;;;;;5073369;28;20495;-65
2023/03/24 00:44:17;;;;;;;13.65;9.27;;;13.20;72.40;;;;;;5073464;28;20040;-65
2023/03/24 00:46:44;;;;;;;13.55;9.70;;;13.20;72.40;;;;;;5073238;28;20082;-66
2023/03/24 00:49:12;;;;;;;11.77;9.13;;;13.20;72.40;;;;;;5073588;28;20070;-66
2023/03/24 00:51:41;;;;;;;14.77;8.75;;;13.10;72.60;;;;;;5073011;28;20044;-65
2023/03/24 00:54:09;;;;;;;15.90;10.38;;;13.10;72.80;;;;;;5073208;28;20108;-65
2023/03/24 00:56:39;;;;;;;14.15;9.13;;;13.10;72.70;;;;;;5072894;28;20060;-65
2023/03/24 00:59:05;;;;;;;12.23;8.85;;;13.10;72.60;;;;;;5072986;28;20033;-65
2023/03/24 01:01:33;;;;;;;12.93;9.57;;;13.10;72.40;;;;;;5072941;28;20037;-65
2023/03/24 01:04:01;;;;;;;16.33;9.65;;;13.10;72.50;;;;;;5073161;28;20432;-66
2023/03/24 01:06:27;;;;;;;14.27;8.98;;;13.00;72.50;;;;;;5073152;28;20087;-65
2023/03/24 01:08:53;;;;;;;12.75;9.43;;;13.00;72.90;;;;;;5072886;28;20028;-65
2023/03/24 01:11:21;;;;;;;12.07;10.05;;;13.00;73.30;;;;;;5072826;28;20581;-65
2023/03/24 01:13:48;;;;;;;16.60;10.43;;;13.00;73.40;;;;;;5072822;28;20037;-65
2023/03/24 01:16:14;;;;;;;17.33;11.15;;;12.90;73.20;;;;;;5073065;28;20036;-65
2023/03/24 01:18:41;;;;;;;15.85;11.68;;;12.90;73.50;;;;;;5072618;28;20056;-67
2023/03/24 01:21:11;;;;;;;14.38;11.30;;;12.80;73.40;;;;;;5072738;28;20443;-65
2023/03/24 01:23:37;;;;;;;19.67;13.18;;;12.90;73.50;;;;;;5072578;28;20036;-65
2023/03/24 01:26:06;;;;;;;20.83;13.32;;;12.80;73.40;;;;;;5072719;28;20516;-65
2023/03/24 01:28:32;;;;;;;26.73;13.45;;;12.80;73.00;;;;;;5072822;28;20051;-65
2023/03/24 01:30:58;;;;;;;20.95;13.35;;;12.70;72.90;;;;;;5072689;28;20048;-65
2023/03/24 01:33:24;;;;;;;21.67;13.13;;;12.70;72.90;;;;;;5072743;28;20560;-66
2023/03/24 01:35:50;;;;;;;16.55;12.90;;;12.70;73.30;;;;;;5072581;28;20056;-65
2023/03/24 01:38:16;;;;;;;18.48;13.15;;;12.60;73.40;;;;;;5072540;28;20391;-65
2023/03/24 01:40:45;;;;;;;16.60;12.43;;;12.60;73.60;;;;;;5072278;28;20037;-65
2023/03/24 01:43:32;;;;;;;14.85;11.65;;;12.60;73.50;;;;;;5072544;28;20029;-65
2023/03/24 01:46:19;;;;;;;15.98;11.13;;;12.50;73.50;;;;;;5079055;28;20491;-65
2023/03/24 01:48:50;;;;;;;16.40;10.70;;;12.50;73.70;;;;;;5079241;28;20113;-65
2023/03/24 01:51:26;;;;;;;14.70;10.93;;;12.50;74.30;;;;;;5078671;28;20392;-65
2023/03/24 01:54:00;;;;;;;13.65;10.50;;;12.40;74.10;;;;;;5079065;28;20035;-65
2023/03/24 01:56:28;;;;;;;15.68;10.73;;;12.40;74.30;;;;;;5079119;28;20048;-65
2023/03/24 01:58:58;;;;;;;14.88;10.43;;;12.40;74.30;;;;;;5076777;28;20029;-65
2023/03/24 02:01:28;;;;;;;15.75;10.48;;;12.40;74.50;;;;;;5076441;28;20031;-65
2023/03/24 02:03:59;;;;;;;17.65;11.02;;;12.40;74.40;;;;;;5076520;28;20049;-66
2023/03/24 02:06:25;;;;;;;17.95;10.85;;;12.40;74.30;;;;;;5078813;28;20082;-65
2023/03/24 02:08:54;;;;;;;14.52;10.35;;;12.30;73.80;;;;;;5078946;28;20032;-65
2023/03/24 02:11:22;;;;;;;13.10;10.63;;;12.30;73.80;;;;;;5060899;28;20049;-65
2023/03/24 02:13:48;;;;;;;17.55;11.68;;;12.20;73.80;;;;;;5078634;28;20494;-65
2023/03/24 02:16:16;;;;;;;15.00;11.00;;;12.20;73.40;;;;;;5078741;28;20107;-66
2023/03/24 02:18:51;;;;;;;17.30;11.50;;;12.20;73.50;;;;;;5078764;28;20093;-65
2023/03/24 02:21:53;;;;;;;17.77;11.45;;;12.10;73.50;;;;;;5078807;28;20430;-66
2023/03/24 02:24:54;;;;;;;19.73;12.30;;;12.10;73.40;;;;;;5078653;28;20043;-66
2023/03/24 02:27:49;;;;;;;16.73;11.55;;;12.20;74.60;;;;;;5078755;28;20257;-65
2023/03/24 02:30:21;;;;;;;17.48;11.40;;;12.10;73.60;;;;;;5058874;28;20067;-66
2023/03/24 02:33:05;;;;;;;18.67;12.23;;;12.00;74.00;;;;;;5078524;28;20082;-65
2023/03/24 02:36:18;;;;;;;14.45;11.25;;;12.00;74.30;;;;;;5078897;28;20100;-65
2023/03/24 02:39:16;;;;;;;16.08;12.00;;;11.90;74.40;;;;;;5053858;28;20400;-65
2023/03/24 02:42:05;;;;;;;14.25;10.75;;;11.90;74.50;;;;;;5033957;28;20040;-66
2023/03/24 02:45:22;;;;;;;15.68;11.63;;;11.90;74.80;;;;;;5067471;28;20111;-65
2023/03/24 02:47:54;;;;;;;15.48;11.52;;;11.80;75.30;;;;;;5042375;28;20573;-66
2023/03/24 02:50:29;;;;;;;17.25;12.35;;;11.80;75.40;;;;;;5078583;28;20044;-65
2023/03/24 02:53:10;;;;;;;16.92;12.38;;;11.80;75.70;;;;;;5078434;28;20032;-65
2023/03/24 02:56:08;;;;;;;16.55;11.73;;;11.80;75.70;;;;;;5076273;28;20033;-65
2023/03/24 02:59:00;;;;;;;17.88;11.10;;;11.70;75.80;;;;;;5070418;28;20028;-66
2023/03/24 03:01:31;;;;;;;17.83;11.60;;;11.80;75.90;;;;;;5071490;28;20508;-66
2023/03/24 03:04:17;;;;;;;14.38;10.88;;;11.80;75.80;;;;;;5075043;28;20032;-65
2023/03/24 03:06:47;;;;;;;14.93;11.57;;;11.80;75.80;;;;;;5074842;28;20108;-65
2023/03/24 03:09:17;;;;;;;19.02;11.52;;;11.80;75.90;;;;;;5075048;28;20033;-65
2023/03/24 03:11:47;;;;;;;15.93;11.82;;;11.80;75.90;;;;;;5074939;28;20045;-65
2023/03/24 03:14:19;;;;;;;15.82;11.80;;;11.80;75.80;;;;;;5074978;28;20037;-65
2023/03/24 03:17:00;;;;;;;14.90;11.45;;;11.80;75.70;;;;;;5075087;28;20499;-65
2023/03/24 03:19:38;;;;;;;14.32;11.63;;;11.80;75.50;;;;;;5074963;28;20042;-65
2023/03/24 03:22:10;;;;;;;17.38;11.88;;;11.70;75.60;;;;;;5067303;28;20041;-66
2023/03/24 03:24:42;;;;;;;13.18;11.13;;;11.70;75.70;;;;;;5075054;28;20563;-65
2023/03/24 03:27:17;;;;;;;16.40;11.80;;;11.70;76.10;;;;;;5074828;28;20040;-65
2023/03/24 03:29:53;;;;;;;18.27;12.30;;;11.70;76.20;;;;;;5074837;28;20031;-65
2023/03/24 03:32:30;;;;;;;21.58;12.02;;;11.70;76.20;;;;;;5074527;28;20093;-65
2023/03/24 03:35:18;;;;;;;18.40;12.05;;;11.70;76.10;;;;;;5074710;28;20396;-64
2023/03/24 03:37:57;;;;;;;15.90;11.93;;;11.70;76.00;;;;;;5074653;28;20498;-65
2023/03/24 03:40:40;;;;;;;15.07;12.13;;;11.60;75.90;;;;;;5074456;28;20064;-65
2023/03/24 03:43:05;;;;;;;18.38;12.05;;;11.60;75.90;;;;;;5066771;28;20051;-65
2023/03/24 03:45:33;;;;;;;19.10;11.77;;;11.60;76.00;;;;;;5074511;28;20100;-65
2023/03/24 03:47:59;;;;;;;16.52;11.60;;;11.60;76.30;;;;;;5074273;28;20396;-65
2023/03/24 03:50:27;;;;;;;19.02;11.77;;;11.60;76.20;;;;;;5074091;28;20080;-65
2023/03/24 03:52:53;;;;;;;16.70;11.85;;;11.60;76.20;;;;;;5074110;28;20040;-65
2023/03/24 03:55:18;;;;;;;17.52;11.35;;;11.60;76.20;;;;;;5074086;28;20055;-65
2023/03/24 03:57:45;;;;;;;15.95;11.45;;;11.50;76.50;;;;;;5074124;28;20395;-65
2023/03/24 04:00:15;;;;;;;17.08;11.02;;;11.50;76.60;;;;;;5074023;28;20381;-66
2023/03/24 04:02:59;;;;;;;13.82;10.25;;;11.50;76.70;;;;;;5074053;28;20048;-65
2023/03/24 04:05:41;;;;;;;15.85;9.85;;;11.50;76.70;;;;;;5074104;28;20086;-65
2023/03/24 04:08:24;;;;;;;13.38;10.00;;;11.50;76.90;;;;;;5073733;28;20123;-65
2023/03/24 04:11:23;;;;;;;17.52;10.10;;;11.50;76.80;;;;;;5073787;28;20127;-65
2023/03/24 04:14:07;;;;;;;13.98;10.57;;;11.40;76.60;;;;;;5073741;28;20392;-65
2023/03/24 04:16:47;;;;;;;14.75;10.52;;;11.50;76.90;;;;;;5073823;28;20484;-65
2023/03/24 04:19:26;;;;;;;17.25;10.52;;;11.40;77.00;;;;;;5073712;28;20362;-65
2023/03/24 04:21:59;;;;;;;13.68;10.40;;;11.40;77.10;;;;;;5073616;28;20115;-64
2023/03/24 04:24:49;;;;;;;21.10;11.30;;;11.30;76.90;;;;;;5073703;28;20120;-65
2023/03/24 04:27:55;;;;;;;24.92;9.73;;;11.30;76.80;;;;;;5073669;28;20036;-65
2023/03/24 04:30:22;;;;;;;12.75;9.35;;;11.30;76.70;;;;;;5026557;28;20040;-65
2023/03/24 04:32:57;;;;;;;13.40;9.45;;;11.30;76.70;;;;;;5055238;28;20392;-65
2023/03/24 04:35:52;;;;;;;14.60;9.45;;;11.30;76.70;;;;;;5073790;28;20036;-65
2023/03/24 04:38:24;;;;;;;11.02;8.57;;;11.30;76.60;;;;;;5071810;28;20480;-65
2023/03/24 04:40:54;;;;;;;10.70;9.07;;;11.20;76.60;;;;;;5073287;28;20060;-64
2023/03/24 04:43:24;;;;;;;12.15;8.98;;;11.20;76.40;;;;;;5073141;28;20417;-65
2023/03/24 04:45:56;;;;;;;11.68;8.35;;;11.20;76.30;;;;;;5073188;28;20044;-65
2023/03/24 04:48:24;;;;;;;11.02;8.45;;;11.20;76.50;;;;;;5073213;28;20040;-65
2023/03/24 04:50:55;;;;;;;16.48;9.07;;;11.10;76.60;;;;;;5073205;28;20139;-65
2023/03/24 04:53:21;;;;;;;13.00;9.13;;;11.10;76.60;;;;;;5073154;28;20526;-64
2023/03/24 04:55:57;;;;;;;13.77;8.88;;;11.10;76.70;;;;;;5073183;28;20036;-65
2023/03/24 04:58:23;;;;;;;13.05;8.63;;;11.00;76.90;;;;;;5073065;28;20036;-65
2023/03/24 05:00:49;;;;;;;14.50;8.38;;;11.10;77.20;;;;;;5073112;28;20085;-66
2023/03/24 05:03:16;;;;;;;14.70;8.98;;;11.00;77.20;;;;;;5072830;28;20499;-65
2023/03/24 05:05:44;;;;;;;13.02;8.82;;;11.00;77.00;;;;;;5072824;28;20038;-65
2023/03/24 05:08:10;;;;;;;17.50;9.57;;;11.10;77.20;;;;;;5072935;28;20507;-65
2023/03/24 05:10:36;;;;;;;16.20;9.85;;;11.00;77.20;;;;;;5072707;28;20045;-65
2023/03/24 05:13:05;;;;;;;13.48;9.00;;;11.00;77.40;;;;;;5072506;28;20033;-64
2023/03/24 05:15:31;;;;;;;14.38;9.00;;;11.00;77.50;;;;;;5072938;28;20043;-65
2023/03/24 05:17:57;;;;;;;12.18;8.52;;;11.00;77.60;;;;;;5072881;28;20028;-65
2023/03/24 05:20:23;;;;;;;13.73;9.25;;;11.00;77.90;;;;;;5072471;28;20033;-66
2023/03/24 05:22:50;;;;;;;16.90;9.63;;;11.00;77.80;;;;;;5073302;28;20028;-65
2023/03/24 05:25:17;;;;;;;13.15;9.45;;;11.00;77.60;;;;;;5072852;28;20029;-65
2023/03/24 05:27:43;;;;;;;16.55;9.63;;;11.00;77.60;;;;;;5072979;28;20036;-65
2023/03/24 05:30:10;;;;;;;13.30;9.02;;;11.00;77.60;;;;;;5072958;28;20067;-65
2023/03/24 05:32:36;;;;;;;17.05;9.60;;;11.00;77.80;;;;;;5073181;28;20401;-65
2023/03/24 05:35:02;;;;;;;16.50;9.57;;;11.00;78.00;;;;;;5072784;28;20044;-65
2023/03/24 05:37:28;;;;;;;18.05;10.40;;;11.00;78.30;;;;;;5072868;28;20472;-66
2023/03/24 05:39:54;;;;;;;15.60;9.60;;;11.00;78.80;;;;;;5072629;28;20037;-64
2023/03/24 05:42:20;;;;;;;18.73;9.68;;;11.00;78.90;;;;;;5072444;28;20040;-65
2023/03/24 05:44:46;;;;;;;16.67;9.93;;;11.00;79.10;;;;;;5072607;28;20177;-64
2023/03/24 05:47:14;;;;;;;22.30;10.15;;;11.00;79.40;;;;;;5072482;28;20048;-65
2023/03/24 05:49:41;;;;;;;132.52;16.33;;;11.00;79.40;;;;;;5072597;28;20036;-65
2023/03/24 05:52:08;;;;;;;162.15;17.17;;;11.00;79.50;;;;;;5072436;28;20104;-65
2023/03/24 05:54:35;;;;;;;197.40;21.15;;;11.00;79.70;;;;;;5072589;28;20033;-65
2023/03/24 05:57:01;;;;;;;165.38;17.25;;;11.00;80.30;;;;;;5072454;28;20068;-65
2023/03/24 05:59:27;;;;;;;180.95;19.50;;;11.00;79.90;;;;;;5072699;28;20029;-65
2023/03/24 06:01:57;;;;;;;124.75;16.35;;;11.00;80.10;;;;;;5072640;28;20028;-65
2023/03/24 06:04:23;;;;;;;77.60;14.00;;;11.00;80.20;;;;;;5054400;28;20098;-65
2023/03/24 06:06:48;;;;;;;56.50;12.25;;;11.10;80.40;;;;;;5072256;28;20433;-66
2023/03/24 06:09:15;;;;;;;98.00;15.23;;;11.10;80.60;;;;;;5054280;28;20064;-66
2023/03/24 06:11:43;;;;;;;85.75;13.07;;;11.10;80.70;;;;;;5072352;28;20098;-66
2023/03/24 06:14:09;;;;;;;43.47;12.93;;;11.10;80.70;;;;;;5072396;28;20039;-65
2023/03/24 06:16:37;;;;;;;31.98;12.27;;;11.20;80.90;;;;;;5072551;28;20033;-66
2023/03/24 06:19:05;;;;;;;26.38;11.43;;;11.20;80.80;;;;;;5072157;28;20036;-65
2023/03/24 06:21:32;;;;;;;20.75;11.27;;;11.20;80.90;;;;;;5072255;28;20037;-66
2023/03/24 06:23:58;;;;;;;19.25;11.02;;;11.30;81.30;;;;;;5072169;28;20425;-66
2023/03/24 06:26:24;;;;;;;20.65;12.25;;;11.30;81.40;;;;;;5072628;28;20033;-66
2023/03/24 06:28:50;;;;;;;68.85;12.48;;;11.40;81.80;;;;;;5072577;28;20503;-66
2023/03/24 06:31:20;;;;;;;38.03;11.75;;;11.40;82.10;;;;;;5073075;28;20086;-66
2023/03/24 06:33:47;;;;;;;33.60;11.10;;;11.50;82.20;;;;;;5076130;28;20061;-66
2023/03/24 06:36:13;;;;;;;26.02;11.23;;;11.50;82.70;;;;;;5075884;28;20040;-65
2023/03/24 06:38:41;;;;;;;25.42;10.25;;;11.50;83.20;;;;;;5075639;28;20039;-66
2023/03/24 06:41:07;;;;;;;25.02;10.82;;;11.60;83.20;;;;;;5075706;28;20032;-66
2023/03/24 06:43:33;;;;;;;23.67;11.02;;;11.60;83.10;;;;;;5075656;28;20054;-66
2023/03/24 06:45:59;;;;;;;24.83;10.30;;;11.70;83.30;;;;;;5075444;28;20032;-66
2023/03/24 06:48:25;;;;;;;19.50;9.80;;;11.80;83.70;;;;;;5075440;28;20036;-66
2023/03/24 06:50:52;;;;;;;22.85;10.55;;;11.80;84.00;;;;;;5075275;28;20072;-66
2023/03/24 06:53:20;;;;;;;15.85;9.35;;;11.90;83.90;;;;;;5075558;28;20031;-66
2023/03/24 06:55:47;;;;;;;17.25;10.20;;;11.90;83.80;;;;;;5057114;28;20105;-65
2023/03/24 06:58:13;;;;;;;24.20;11.07;;;12.00;83.50;;;;;;5075366;28;20060;-66
2023/03/24 07:00:40;;;;;;;16.35;10.35;;;12.00;83.50;;;;;;5075239;28;20033;-66
2023/03/24 07:03:06;;;;;;;16.77;10.50;;;12.10;83.50;;;;;;5075150;28;20044;-66
2023/03/24 07:05:37;;;;;;;18.63;10.20;;;12.10;83.60;;;;;;5075197;28;20043;-67
2023/03/24 07:08:03;;;;;;;14.75;10.38;;;12.20;83.40;;;;;;5067058;28;20041;-67
2023/03/24 07:10:29;;;;;;;29.55;10.98;;;12.20;83.10;;;;;;5075031;28;20055;-67
2023/03/24 07:12:55;;;;;;;20.23;10.60;;;12.20;82.80;;;;;;5074837;28;20029;-66
2023/03/24 07:15:21;;;;;;;17.70;11.18;;;12.30;82.60;;;;;;5074996;28;20399;-66
2023/03/24 07:17:47;;;;;;;27.02;11.48;;;12.30;82.50;;;;;;5075065;28;20047;-66
2023/03/24 07:20:13;;;;;;;24.52;11.43;;;12.40;82.30;;;;;;5075148;28;20087;-68
2023/03/24 07:22:39;;;;;;;18.95;10.93;;;12.40;82.50;;;;;;5075084;28;20404;-67
2023/03/24 07:25:05;;;;;;;20.98;11.52;;;12.50;82.70;;;;;;5074986;28;20492;-68
2023/03/24 07:27:34;;;;;;;19.45;11.07;;;12.60;83.00;;;;;;5074892;28;20121;-67
2023/03/24 07:30:01;;;;;;;16.48;9.85;;;12.60;83.20;;;;;;5074605;28;20032;-68
2023/03/24 07:32:29;;;;;;;18.08;9.13;;;12.70;83.10;;;;;;5074480;28;20080;-67
2023/03/24 07:34:56;;;;;;;15.05;9.30;;;12.80;82.80;;;;;;5074423;28;20429;-66
2023/03/24 07:37:22;;;;;;;11.73;9.05;;;12.90;82.70;;;;;;5074373;28;20055;-67
2023/03/24 07:39:48;;;;;;;27.52;10.60;;;12.90;82.60;;;;;;5074261;28;20036;-67
2023/03/24 07:42:14;;;;;;;20.45;9.45;;;13.00;82.20;;;;;;5074087;28;20093;-67
2023/03/24 07:44:39;;;;;;;19.88;10.60;;;13.10;81.80;;;;;;5074666;28;20472;-67
2023/03/24 07:47:05;;;;;;;12.48;9.70;;;13.10;81.80;;;;;;5074315;28;20511;-67
2023/03/24 07:49:31;;;;;;;18.20;9.10;;;13.20;81.70;;;;;;5074010;28;20090;-68
2023/03/24 07:51:57;;;;;;;15.30;9.25;;;13.30;81.50;;;;;;5074099;28;20051;-67
2023/03/24 07:54:24;;;;;;;15.13;9.15;;;13.40;81.20;;;;;;5073910;28;20036;-67
2023/03/24 07:56:50;;;;;;;16.30;9.23;;;13.40;80.80;;;;;;5074609;28;20436;-68
2023/03/24 07:59:16;;;;;;;14.43;8.95;;;13.50;80.30;;;;;;5074423;28;20060;-67
2023/03/24 08:01:42;;;;;;;15.32;8.85;;;13.60;80.50;;;;;;5074415;28;20056;-67
2023/03/24 08:04:11;;;;;;;14.50;10.45;;;13.60;80.60;;;;;;5073520;28;20041;-68
2023/03/24 08:06:37;;;;;;;17.05;10.00;;;13.70;80.60;;;;;;5073926;28;20482;-67
2023/03/24 08:09:03;;;;;;;16.17;9.85;;;13.80;80.70;;;;;;5074419;28;20123;-68
2023/03/24 08:37:44;;;;;;;13.90;8.93;;;14.10;80.30;;;;;;5090388;27;20110;-67
2023/03/24 08:40:13;;;;;;;14.10;9.80;;;14.10;81.80;;;;;;5090364;28;20028;-68
2023/03/24 08:42:40;;;;;;;15.13;8.70;;;14.20;81.70;;;;;;5090467;28;20074;-66
2023/03/24 08:45:07;;;;;;;16.48;7.50;;;14.30;82.10;;;;;;5090334;28;20430;-65
2023/03/24 08:47:33;;;;;;;14.35;6.65;;;14.40;82.10;;;;;;5089970;28;20025;-66
2023/03/24 08:49:59;;;;;;;13.68;8.80;;;14.50;81.80;;;;;;5090008;28;20099;-66
2023/03/24 08:52:25;;;;;;;10.77;8.02;;;14.60;81.30;;;;;;5090175;28;20468;-66
2023/03/24 08:54:51;;;;;;;9.32;7.30;;;14.70;80.60;;;;;;5090334;28;20444;-68
2023/03/24 08:57:17;;;;;;;11.90;7.78;;;14.80;80.20;;;;;;5089598;28;20555;-68
2023/03/24 08:59:43;;;;;;;9.02;7.18;;;14.90;80.30;;;;;;5089979;28;20033;-66
2023/03/24 09:02:12;;;;;;;9.25;6.60;;;15.00;79.70;;;;;;5088280;28;20017;-67
2023/03/24 09:04:38;;;;;;;8.82;6.72;;;15.10;79.40;;;;;;5089503;28;20035;-67
2023/03/24 09:07:04;;;;;;;11.30;7.80;;;15.20;79.30;;;;;;5089075;28;20021;-68
2023/03/24 09:09:32;;;;;;;17.55;8.30;;;15.30;79.10;;;;;;5088170;28;20028;-66
2023/03/24 09:11:57;;;;;;;15.40;8.77;;;15.40;79.50;;;;;;5089311;28;20159;-66
2023/03/24 09:14:23;;;;;;;11.90;7.75;;;15.40;78.60;;;;;;5089446;28;20066;-66
2023/03/24 09:16:49;;;;;;;9.23;7.43;;;15.50;78.30;;;;;;5089063;28;20043;-67
2023/03/24 09:19:16;;;;;;;8.75;7.35;;;15.60;78.60;;;;;;5089644;28;20379;-66
2023/03/24 09:21:44;;;;;;;9.73;7.63;;;15.70;78.60;;;;;;5088768;28;20020;-66
2023/03/24 09:24:11;;;;;;;10.45;7.80;;;15.70;79.00;;;;;;5088652;28;20051;-66
2023/03/24 09:26:36;;;;;;;11.90;8.05;;;15.80;78.90;;;;;;5088743;28;20035;-67
2023/03/24 09:29:02;;;;;;;8.32;7.40;;;15.90;78.90;;;;;;5088303;28;20104;-66
2023/03/24 09:31:28;;;;;;;9.82;7.82;;;16.00;78.70;;;;;;5089252;28;20583;-66
2023/03/24 09:33:54;;;;;;;11.65;7.43;;;16.10;78.50;;;;;;5089723;28;20103;-66
2023/03/24 09:36:20;;;;;;;11.65;7.22;;;16.10;78.30;;;;;;5089112;28;20048;-66
2023/03/24 09:38:46;;;;;;;10.35;8.10;;;16.20;78.70;;;;;;5089301;28;20492;-68
2023/03/24 09:41:18;;;;;;;16.55;9.02;;;16.30;78.10;;;;;;5089312;28;20028;-67
2023/03/24 09:43:53;;;;;;;11.23;8.27;;;16.30;78.60;;;;;;5089271;28;20028;-68
2023/03/24 09:46:30;;;;;;;13.10;9.40;;;16.30;77.90;;;;;;5089480;28;20528;-68
2023/03/24 09:48:56;;;;;;;10.43;7.97;;;16.40;78.50;;;;;;5075823;28;20477;-68
2023/03/24 09:51:23;;;;;;;11.27;8.88;;;16.50;77.60;;;;;;5075587;28;20034;-67
2023/03/24 09:54:04;;;;;;;14.07;8.88;;;16.50;77.90;;;;;;5075692;28;20098;-67
2023/03/24 09:56:32;;;;;;;10.20;9.05;;;16.60;78.20;;;;;;5075275;28;20120;-67
2023/03/24 09:59:18;;;;;;;10.32;8.20;;;16.70;77.60;;;;;;5075731;28;20021;-68
2023/03/24 10:01:44;;;;;;;10.93;7.13;;;16.80;77.40;;;;;;5075508;28;20024;-67
2023/03/24 10:04:21;;;;;;;11.52;7.32;;;16.80;76.80;;;;;;5075430;28;20024;-67
2023/03/24 10:06:52;;;;;;;8.85;6.80;;;16.80;76.30;;;;;;5075079;28;20101;-67
2023/03/24 10:09:26;;;;;;;9.40;6.95;;;16.80;76.10;;;;;;5075376;28;20017;-67
2023/03/24 10:11:59;;;;;;;8.70;7.50;;;16.90;76.30;;;;;;5075060;28;20018;-67
2023/03/24 10:14:31;;;;;;;8.35;6.90;;;16.90;76.00;;;;;;5074896;28;20024;-67
2023/03/24 10:17:10;;;;;;;9.50;7.50;;;17.00;75.10;;;;;;5075026;28;20071;-67
2023/03/24 10:19:51;;;;;;;12.35;7.85;;;17.00;74.90;;;;;;5074958;28;20028;-67
2023/03/24 10:22:44;;;;;;;9.80;7.85;;;17.10;75.20;;;;;;5075001;28;20021;-67
2023/03/24 10:25:48;;;;;;;11.23;7.30;;;17.10;75.60;;;;;;5073697;28;20032;-67
2023/03/24 10:28:14;;;;;;;9.20;6.13;;;17.20;74.70;;;;;;4993557;28;20092;-67
2023/03/24 10:30:41;;;;;;;8.82;6.22;;;17.30;74.20;;;;;;5059250;28;20536;-67
2023/03/24 10:33:10;;;;;;;10.15;6.38;;;17.30;74.00;;;;;;5074536;28;20062;-68
2023/03/24 10:35:50;;;;;;;12.70;5.65;;;17.30;74.50;;;;;;5074300;28;20056;-67
2023/03/24 10:38:19;;;;;;;12.05;5.85;;;17.40;73.40;;;;;;5074526;28;20117;-67
2023/03/24 10:40:46;;;;;;;7.15;5.40;;;17.40;73.10;;;;;;5074660;28;20342;-67
2023/03/24 10:43:13;;;;;;;7.53;4.72;;;17.30;73.50;;;;;;5074119;28;20040;-67
2023/03/24 10:45:42;;;;;;;7.53;4.90;;;17.30;72.30;;;;;;5074363;28;20032;-67
2023/03/24 10:48:11;;;;;;;6.72;4.57;;;17.40;71.70;;;;;;5074036;28;20031;-67
2023/03/24 10:50:42;;;;;;;6.55;4.18;;;17.40;71.00;;;;;;5073931;28;20021;-67
2023/03/24 10:53:17;;;;;;;6.20;4.10;;;17.60;70.50;;;;;;5073957;28;20051;-67
2023/03/24 10:55:43;;;;;;;6.47;4.10;;;17.60;68.80;;;;;;5074174;28;20082;-67
2023/03/24 10:58:29;;;;;;;8.70;4.40;;;17.70;68.90;;;;;;5074186;28;20440;-67
2023/03/24 11:00:57;;;;;;;10.40;4.20;;;17.70;68.30;;;;;;5073289;28;20060;-67
2023/03/24 11:03:33;;;;;;;8.00;3.60;;;17.80;67.60;;;;;;5073873;28;20468;-67
2023/03/24 11:06:03;;;;;;;4.82;4.05;;;17.90;67.10;;;;;;5073855;28;20024;-67
2023/03/24 11:08:37;;;;;;;5.07;3.40;;;17.90;66.60;;;;;;5074203;28;20021;-67
2023/03/24 11:11:33;;;;;;;4.22;3.78;;;17.90;66.00;;;;;;5073961;28;20381;-67
2023/03/24 11:14:01;;;;;;;6.93;4.00;;;18.00;65.90;;;;;;5057020;28;20476;-68
2023/03/24 11:16:37;;;;;;;6.95;4.15;;;18.10;65.90;;;;;;5073702;28;20487;-67
2023/03/24 11:19:06;;;;;;;6.15;4.13;;;18.10;65.80;;;;;;5073938;28;20016;-67
2023/03/24 11:21:35;;;;;;;7.07;3.78;;;18.10;64.70;;;;;;5071912;28;20031;-68
2023/03/24 11:24:09;;;;;;;7.18;4.10;;;18.10;64.40;;;;;;5072308;28;20024;-66
2023/03/24 11:26:37;;;;;;;6.95;4.07;;;18.20;65.00;;;;;;5072930;28;20024;-67
2023/03/24 11:29:12;;;;;;;8.90;4.22;;;18.20;65.60;;;;;;5072787;28;20077;-66
2023/03/24 11:31:39;;;;;;;9.38;4.50;;;18.10;64.80;;;;;;5072234;28;20028;-67
2023/03/24 11:34:10;;;;;;;6.78;4.82;;;18.10;65.10;;;;;;5072081;28;20048;-68
2023/03/24 11:36:41;;;;;;;8.13;4.97;;;18.10;65.10;;;;;;5071741;28;20048;-67
2023/03/24 11:39:16;;;;;;;11.38;6.30;;;18.10;65.40;;;;;;5072662;28;20023;-67
2023/03/24 11:42:00;;;;;;;13.35;7.10;;;18.00;66.20;;;;;;5073108;28;20024;-66
2023/03/24 11:44:30;;;;;;;10.35;6.63;;;17.90;67.40;;;;;;5072650;28;20039;-67
2023/03/24 11:47:01;;;;;;;10.80;7.55;;;17.90;68.70;;;;;;5073230;28;20024;-66
2023/03/24 11:49:31;;;;;;;12.45;8.70;;;17.80;69.40;;;;;;5073397;28;20025;-67
2023/03/24 11:51:57;;;;;;;11.93;9.73;;;17.80;70.00;;;;;;5073183;28;20028;-67
2023/03/24 11:54:36;;;;;;;15.57;10.38;;;17.70;71.50;;;;;;5072166;28;20566;-67
2023/03/24 11:57:12;;;;;;;17.48;11.18;;;17.70;70.90;;;;;;5073148;28;20032;-66
2023/03/24 12:00:09;;;;;;;15.00;12.35;;;17.60;70.60;;;;;;5073195;28;20086;-66
2023/03/24 12:02:48;;;;;;;15.38;12.60;;;17.60;71.50;;;;;;5073319;28;20536;-67
2023/03/24 12:05:29;;;;;;;18.42;13.57;;;17.50;71.50;;;;;;5073226;28;20035;-66
2023/03/24 12:08:18;;;;;;;22.20;15.70;;;17.50;71.90;;;;;;5072733;28;20021;-66
2023/03/24 12:11:05;;;;;;;22.75;17.95;;;17.50;71.50;;;;;;5072877;28;20017;-67
2023/03/24 12:13:36;;;;;;;25.10;18.63;;;17.50;70.50;;;;;;5070079;28;20036;-66
2023/03/24 12:16:31;;;;;;;21.83;17.00;;;17.50;70.20;;;;;;5069876;28;20481;-67
2023/03/24 12:19:17;;;;;;;25.67;19.38;;;17.50;68.50;;;;;;5071650;28;20071;-67
2023/03/24 12:22:22;;;;;;;23.50;19.67;;;17.50;67.70;;;;;;5072996;28;20033;-67
2023/03/24 12:25:26;;;;;;;27.20;20.88;;;17.50;67.90;;;;;;5031454;28;20044;-67
2023/03/24 12:28:00;;;;;;;24.77;20.33;;;17.50;68.10;;;;;;5072511;28;20025;-67
2023/03/24 12:30:43;;;;;;;35.72;24.13;;;17.50;69.00;;;;;;5072688;28;20027;-68
2023/03/24 12:33:44;;;;;;;29.15;23.08;;;17.50;69.60;;;;;;5072783;28;20028;-66
2023/03/24 12:36:30;;;;;;;28.70;22.98;;;17.40;70.00;;;;;;5072446;28;20132;-67
2023/03/24 12:39:23;;;;;;;26.27;22.15;;;17.40;70.40;;;;;;5070164;28;20033;-67
2023/03/24 12:41:57;;;;;;;;;;;17.40;71.20;;;;;;5070274;28;20082;-67
2023/03/24 12:44:42;;;;;;;25.77;21.58;;;17.30;71.50;;;;;;5070717;28;20418;-67
2023/03/24 12:47:38;;;;;;;24.48;20.50;;;17.30;71.90;;;;;;5072312;28;20075;-66
2023/03/24 12:50:23;;;;;;;25.13;19.08;;;17.20;72.70;;;;;;5072506;28;20028;-67
2023/03/24 12:53:26;;;;;;;23.17;19.27;;;17.20;72.80;;;;;;5072036;28;20024;-66
2023/03/24 12:56:01;;;;;;;22.35;17.25;;;17.10;73.00;;;;;;5061025;28;20045;-67
2023/03/24 12:58:40;;;;;;;27.90;19.15;;;17.10;72.90;;;;;;5072086;28;20054;-67
2023/03/24 13:01:11;;;;;;;23.90;18.25;;;17.10;73.80;;;;;;5071925;28;20039;-67
2023/03/24 13:03:45;;;;;;;25.27;18.42;;;17.00;74.30;;;;;;5071122;28;20024;-67
2023/03/24 13:06:22;;;;;;;36.20;21.05;;;17.00;75.00;;;;;;5071367;28;20456;-69
2023/03/24 13:09:08;;;;;;;27.88;19.58;;;17.00;74.70;;;;;;5071476;28;20020;-67
2023/03/24 13:11:42;;;;;;;27.75;20.30;;;16.90;74.60;;;;;;5071508;28;20108;-66
2023/03/24 13:14:14;;;;;;;22.67;18.10;;;16.90;75.20;;;;;;5071489;28;20035;-67
2023/03/24 13:16:42;;;;;;;25.00;20.20;;;16.90;74.80;;;;;;5071764;28;20352;-66
2023/03/24 13:19:18;;;;;;;23.45;19.58;;;16.90;74.90;;;;;;5072152;28;20028;-67
2023/03/24 13:21:44;;;;;;;22.80;19.30;;;16.90;75.10;;;;;;5072073;28;20043;-68
2023/03/24 13:24:13;;;;;;;23.30;19.00;;;16.90;75.10;;;;;;5075485;28;20035;-67
2023/03/24 13:27:15;;;;;;;25.92;18.98;;;17.00;75.60;;;;;;5075718;28;20481;-67